createdAt,value
2023-03-05T00:02:05.883Z,-3.07
2023-03-05T00:07:12.336Z,-3.10
2023-03-05T00:12:15.292Z,-3.13
2023-03-05T00:17:18.415Z,-3.16
2023-03-05T00:22:21.691Z,-3.18
2023-03-05T00:27:24.599Z,-3.19
2023-03-05T00:32:27.446Z,-3.20
2023-03-05T00:37:30.234Z,-3.20
2023-03-05T00:42:38.593Z,-3.18
2023-03-05T00:47:41.337Z,-3.20
2023-03-05T00:52:44.115Z,-3.22
2023-03-05T00:57:46.797Z,-3.22
2023-03-05T01:02:49.638Z,-3.24
2023-03-05T01:07:53.967Z,-3.25
2023-03-05T01:12:57.849Z,-3.27
2023-03-05T01:18:00.593Z,-3.30
2023-03-05T01:23:03.498Z,-3.34
2023-03-05T01:28:06.235Z,-3.38
2023-03-05T01:33:09.598Z,-3.45
2023-03-05T01:38:12.400Z,-3.47
2023-03-05T01:43:29.319Z,-3.50
2023-03-05T01:48:32.174Z,-3.54
2023-03-05T01:53:35.039Z,-3.57
2023-03-05T01:58:39.900Z,-3.59
2023-03-05T02:03:43.018Z,-3.61
2023-03-05T02:08:45.757Z,-3.60
2023-03-05T02:13:48.522Z,-3.60
2023-03-05T02:18:51.326Z,-3.61
2023-03-05T02:23:54.408Z,-3.60
2023-03-05T02:29:01.093Z,-3.60
2023-03-05T02:34:03.793Z,-3.60
2023-03-05T02:39:07.264Z,-3.60
2023-03-05T02:44:10.037Z,-3.63
2023-03-05T02:49:12.797Z,-3.66
2023-03-05T02:54:15.625Z,-3.68
2023-03-05T02:59:18.375Z,-3.69
2023-03-05T03:04:21.173Z,-3.73
2023-03-05T03:09:23.860Z,-3.76
2023-03-05T03:14:26.733Z,-3.77
2023-03-05T03:19:29.533Z,-3.76
2023-03-05T03:24:33.760Z,-3.70
2023-03-05T03:29:37.210Z,-3.54
2023-03-05T03:34:40.132Z,-3.32
2023-03-05T03:39:42.893Z,-3.12
2023-03-05T03:44:45.640Z,-2.97
2023-03-05T03:49:48.340Z,-2.86
2023-03-05T03:54:53.244Z,-2.78
2023-03-05T03:59:56.058Z,-2.74
2023-03-05T04:04:58.846Z,-2.75
2023-03-05T04:10:01.647Z,-2.79
2023-03-05T04:15:08.049Z,-2.87
2023-03-05T04:20:11.739Z,-2.92
2023-03-05T04:25:14.968Z,-2.94
2023-03-05T04:30:18.060Z,-2.97
2023-03-05T04:35:20.825Z,-3.05
2023-03-05T04:40:23.572Z,-3.15
2023-03-05T04:45:26.390Z,-3.25
2023-03-05T04:50:29.103Z,-3.37
2023-03-05T04:55:31.873Z,-3.50
2023-03-05T05:00:34.670Z,-3.62
2023-03-05T05:05:37.987Z,-3.69
2023-03-05T05:10:41.571Z,-3.69
2023-03-05T05:15:44.292Z,-3.70
2023-03-05T05:20:47.924Z,-3.72
2023-03-05T05:26:01.619Z,-3.75
2023-03-05T05:31:08.643Z,-3.78
2023-03-05T05:36:15.373Z,-3.78
2023-03-05T05:41:19.638Z,-3.32
2023-03-05T05:46:23.029Z,-2.75
2023-03-05T05:51:26.252Z,-2.11
2023-03-05T05:56:29.050Z,-1.35
2023-03-05T06:01:34.720Z,-1.55
2023-03-05T06:06:37.945Z,-1.82
2023-03-05T06:11:40.726Z,-2.11
2023-03-05T06:16:43.592Z,-2.08
2023-03-05T06:21:46.382Z,-0.65
2023-03-05T06:26:49.388Z,0.96
2023-03-05T06:31:52.348Z,2.48
2023-03-05T06:36:55.667Z,4.03
2023-03-05T06:41:58.768Z,5.50
2023-03-05T06:47:01.469Z,6.79
2023-03-05T06:52:06.013Z,7.82
2023-03-05T06:57:10.590Z,8.69
2023-03-05T07:02:14.384Z,9.38
2023-03-05T07:07:17.385Z,10.08
2023-03-05T07:12:20.121Z,10.52
2023-03-05T07:17:22.889Z,10.98
2023-03-05T07:22:25.606Z,11.54
2023-03-05T07:27:28.493Z,12.18
2023-03-05T07:32:31.528Z,13.24
2023-03-05T07:37:34.709Z,14.37
2023-03-05T07:42:37.427Z,15.61
2023-03-05T07:47:40.491Z,16.19
2023-03-05T07:52:43.221Z,16.52
2023-03-05T07:57:45.978Z,17.50
2023-03-05T08:02:50.217Z,18.54
2023-03-05T08:07:53.132Z,19.23
2023-03-05T08:12:55.958Z,19.00
2023-03-05T08:17:59.855Z,16.96
2023-03-05T08:23:03.495Z,14.07
2023-03-05T08:28:06.243Z,13.25
2023-03-05T08:33:09.112Z,13.25
2023-03-05T08:38:11.916Z,14.40
2023-03-05T08:43:15.458Z,15.15
2023-03-05T08:48:18.141Z,15.04
2023-03-05T08:53:20.854Z,14.72
2023-03-05T08:58:24.637Z,15.37
2023-03-05T09:03:27.892Z,14.90
2023-03-05T09:08:30.632Z,14.50
2023-03-05T09:13:34.010Z,13.95
2023-03-05T09:18:36.980Z,12.55
2023-03-05T09:23:40.964Z,11.20
2023-03-05T09:28:43.714Z,11.44
2023-03-05T09:33:48.046Z,12.06
2023-03-05T09:38:51.393Z,11.90
2023-03-05T09:44:02.466Z,11.99
2023-03-05T09:49:13.280Z,12.00
2023-03-05T09:54:41.738Z,12.48
2023-03-05T09:59:59.515Z,12.61
2023-03-05T10:05:43.585Z,12.63
2023-03-05T10:10:51.202Z,12.27
2023-03-05T10:16:06.224Z,12.15
2023-03-05T10:21:32.209Z,12.80
2023-03-05T10:27:13.430Z,13.41
2023-03-05T10:32:36.276Z,15.95
2023-03-05T10:37:41.997Z,18.48
2023-03-05T10:43:15.710Z,17.31
2023-03-05T10:48:59.263Z,13.90
2023-03-05T10:54:04.632Z,10.63
2023-03-05T10:59:07.342Z,8.30
2023-03-05T11:04:28.687Z,8.98
2023-03-05T11:09:35.556Z,12.95
2023-03-05T11:14:41.739Z,16.28
2023-03-05T11:19:44.572Z,18.47
2023-03-05T11:25:05.689Z,18.51
2023-03-05T11:30:29.166Z,19.04
2023-03-05T11:35:35.138Z,20.38
2023-03-05T11:40:37.875Z,19.14
2023-03-05T11:45:42.275Z,14.98
2023-03-05T11:50:48.966Z,10.99
2023-03-05T11:56:04.166Z,9.92
2023-03-05T12:01:20.992Z,10.17
2023-03-05T12:06:37.732Z,8.07
2023-03-05T12:11:41.239Z,5.73
2023-03-05T12:16:53.475Z,4.31
2023-03-05T12:21:57.500Z,3.86
2023-03-05T12:27:03.063Z,3.64
2023-03-05T12:32:26.104Z,4.32
2023-03-05T12:37:28.940Z,9.50
2023-03-05T12:42:31.661Z,13.89
2023-03-05T12:47:34.383Z,15.49
2023-03-05T12:52:42.277Z,13.27
2023-03-05T12:57:47.285Z,10.75
2023-03-05T13:02:56.429Z,10.70
2023-03-05T13:08:18.174Z,10.64
2023-03-05T13:13:21.718Z,8.81
2023-03-05T13:18:27.401Z,10.31
2023-03-05T13:23:32.653Z,11.86
2023-03-05T13:28:37.516Z,10.11
2023-03-05T13:33:40.618Z,8.43
2023-03-05T13:38:48.636Z,7.50
2023-03-05T13:43:55.212Z,7.66
2023-03-05T13:49:18.057Z,8.95
2023-03-05T13:54:23.412Z,9.74
2023-03-05T13:59:29.706Z,12.17
2023-03-05T14:04:38.042Z,12.47
2023-03-05T14:09:40.708Z,10.96
2023-03-05T14:14:44.157Z,11.21
2023-03-05T14:19:46.951Z,12.85
2023-03-05T14:24:53.575Z,13.98
2023-03-05T14:29:56.331Z,14.53
2023-03-05T14:35:01.943Z,14.47
2023-03-05T14:40:32.109Z,14.37
2023-03-05T14:45:38.453Z,14.36
2023-03-05T14:50:46.012Z,13.72
2023-03-05T14:55:51.461Z,11.53
2023-03-05T15:00:55.601Z,9.34
2023-03-05T15:05:59.569Z,7.62
2023-03-05T15:11:04.069Z,6.51
2023-03-05T15:16:07.986Z,7.06
2023-03-05T15:21:11.131Z,7.82
2023-03-05T15:26:15.467Z,8.23
2023-03-05T15:31:18.689Z,8.50
2023-03-05T15:36:21.572Z,8.64
2023-03-05T15:41:24.963Z,8.58
2023-03-05T15:46:27.840Z,8.12
2023-03-05T15:51:30.615Z,7.37
2023-03-05T15:56:33.369Z,6.25
2023-03-05T16:01:39.288Z,4.93
2023-03-05T16:06:43.723Z,3.73
2023-03-05T16:11:49.561Z,2.77
2023-03-05T16:16:55.543Z,2.08
2023-03-05T16:21:58.223Z,1.47
2023-03-05T16:27:01.039Z,0.92
2023-03-05T16:32:04.943Z,0.47
2023-03-05T16:37:07.789Z,0.11
2023-03-05T16:42:10.784Z,-0.19
2023-03-05T16:47:13.659Z,-0.41
2023-03-05T16:52:19.720Z,-0.59
2023-03-05T16:57:25.788Z,-0.73
2023-03-05T17:02:28.853Z,-0.83
2023-03-05T17:07:31.646Z,-0.91
2023-03-05T17:12:34.332Z,-1.00
2023-03-05T17:17:38.921Z,-1.11
2023-03-05T17:22:42.332Z,-1.21
2023-03-05T17:27:45.112Z,-1.30
2023-03-05T17:32:48.116Z,-1.39
2023-03-05T17:37:53.531Z,-1.47
2023-03-05T17:42:56.273Z,-1.53
2023-03-05T17:47:59.022Z,-1.53
2023-03-05T17:53:01.880Z,-1.52
2023-03-05T17:58:04.678Z,-1.54
2023-03-05T18:03:07.613Z,-1.59
2023-03-05T18:08:10.389Z,-1.64
2023-03-05T18:13:13.187Z,-1.66
2023-03-05T18:18:17.327Z,-1.71
2023-03-05T18:23:20.050Z,-1.76
2023-03-05T18:28:22.882Z,-1.84
2023-03-05T18:33:25.815Z,-1.91
2023-03-05T18:38:29.901Z,-1.93
2023-03-05T18:43:32.656Z,-1.94
2023-03-05T18:48:35.387Z,-1.93
2023-03-05T18:53:38.155Z,-1.97
2023-03-05T18:58:40.972Z,-2.04
2023-03-05T19:03:45.198Z,-2.10
2023-03-05T19:08:50.776Z,-2.12
2023-03-05T19:13:53.456Z,-2.12
2023-03-05T19:19:20.131Z,-2.10
2023-03-05T19:24:25.462Z,-2.11
2023-03-05T19:29:33.271Z,-2.13
2023-03-05T19:34:36.761Z,-2.17
2023-03-05T19:39:39.676Z,-2.16
2023-03-05T19:44:42.353Z,-2.17
2023-03-05T19:49:45.079Z,-2.21
2023-03-05T19:54:47.796Z,-2.27
2023-03-05T19:59:53.701Z,-2.30
2023-03-05T20:04:57.538Z,-2.31
2023-03-05T20:10:00.972Z,-2.33
2023-03-05T20:15:03.943Z,-2.37
2023-03-05T20:20:07.549Z,-2.44
2023-03-05T20:25:12.080Z,-2.47
2023-03-05T20:30:17.558Z,-2.48
2023-03-05T20:35:20.899Z,-2.48
2023-03-05T20:40:23.687Z,-2.51
2023-03-05T20:45:26.388Z,-2.57
2023-03-05T20:50:29.052Z,-2.64
2023-03-05T20:55:32.724Z,-2.70
2023-03-05T21:00:37.282Z,-2.71
2023-03-05T21:05:40.080Z,-2.71
2023-03-05T21:10:42.956Z,-2.72
2023-03-05T21:15:45.734Z,-2.77
2023-03-05T21:20:48.528Z,-2.85
2023-03-05T21:25:51.306Z,-2.94
2023-03-05T21:30:55.840Z,-3.00
2023-03-05T21:35:59.118Z,-3.03
2023-03-05T21:41:03.148Z,-3.03
2023-03-05T21:46:06.083Z,-3.04
2023-03-05T21:51:09.151Z,-3.03
2023-03-05T21:56:23.547Z,-3.03
2023-03-05T22:01:26.595Z,-3.03
2023-03-05T22:06:29.389Z,-3.03
2023-03-05T22:11:32.138Z,-2.98
2023-03-05T22:16:34.970Z,-2.93
2023-03-05T22:21:37.948Z,-2.86
2023-03-05T22:26:41.749Z,-2.81
2023-03-05T22:31:44.724Z,-2.76
2023-03-05T22:36:47.476Z,-2.71
2023-03-05T22:41:50.573Z,-2.65
2023-03-05T22:46:53.384Z,-2.65
2023-03-05T22:51:56.062Z,-2.69
2023-03-05T22:56:59.277Z,-2.76
2023-03-05T23:02:01.969Z,-2.83
2023-03-05T23:07:04.922Z,-2.88
2023-03-05T23:12:08.257Z,-2.94
2023-03-05T23:17:11.015Z,-2.99
2023-03-05T23:22:14.223Z,-2.98
2023-03-05T23:27:19.102Z,-2.96
2023-03-05T23:32:21.836Z,-2.94
2023-03-05T23:37:24.611Z,-2.96
2023-03-05T23:42:27.685Z,-3.01
2023-03-05T23:47:30.490Z,-3.07
2023-03-05T23:52:33.904Z,-3.15
2023-03-05T23:57:37.036Z,-3.25
